Time;durP1;ratioP1;P1;durP2;ratioP2;P2;SDS_P1;SDS_P2;PMS_P1;PMS_P2;Temp;Humidity;BMP_temperature;BMP_pressure;BME280_temperature;BME280_humidity;BME280_pressure;Samples;Min_cycle;Max_cycle;Signal;HPM_P1;HPM_P2
2023/12/24 00:01:44;;;;;;;5.40;1.10;;;9.00;99.90;;;;;;5001116;28;20409;-57
2023/12/24 00:04:11;;;;;;;7.85;1.35;;;9.10;99.90;;;;;;5003444;28;20491;-52
2023/12/24 00:06:36;;;;;;;10.80;2.55;;;9.10;99.90;;;;;;4997275;28;20027;-51
2023/12/24 00:09:02;;;;;;;6.05;1.20;;;9.10;99.90;;;;;;5012471;28;20462;-51
2023/12/24 00:11:27;;;;;;;4.35;1.30;;;9.10;99.90;;;;;;5011797;28;20041;-57
2023/12/24 00:13:53;;;;;;;6.45;0.90;;;9.10;99.90;;;;;;5012880;28;20030;-50
2023/12/24 00:16:18;;;;;;;7.55;1.00;;;9.20;99.90;;;;;;5012729;28;20049;-51
2023/12/24 00:18:44;;;;;;;4.68;0.98;;;9.20;99.90;;;;;;5008746;28;20088;-51
2023/12/24 00:21:12;;;;;;;2.95;1.10;;;9.20;99.90;;;;;;5008666;28;20022;-55
2023/12/24 00:23:37;;;;;;;4.93;1.20;;;9.20;99.90;;;;;;4993020;28;20019;-50
2023/12/24 00:26:03;;;;;;;2.15;0.80;;;9.20;99.90;;;;;;4992868;28;20442;-51
2023/12/24 00:28:29;;;;;;;2.20;0.90;;;9.20;99.90;;;;;;4993171;28;20037;-50
2023/12/24 00:30:54;;;;;;;5.20;1.20;;;9.20;99.90;;;;;;4992997;28;20034;-54
2023/12/24 00:33:21;;;;;;;2.63;0.95;;;9.20;99.90;;;;;;4986385;28;20082;-51
2023/12/24 00:35:47;;;;;;;3.08;0.85;;;9.10;99.90;;;;;;5009681;28;20025;-53
2023/12/24 00:38:13;;;;;;;2.95;1.10;;;9.10;99.90;;;;;;5012568;28;20014;-53
2023/12/24 00:40:39;;;;;;;1.77;0.60;;;9.10;99.90;;;;;;5005770;28;20037;-53
2023/12/24 00:43:05;;;;;;;1.50;0.70;;;9.10;99.90;;;;;;5001094;28;20084;-50
2023/12/24 00:45:31;;;;;;;3.75;0.60;;;9.10;99.90;;;;;;5007536;28;20202;-51
2023/12/24 00:47:57;;;;;;;1.95;0.70;;;9.10;99.90;;;;;;5003317;28;20030;-51
2023/12/24 00:50:22;;;;;;;3.60;0.80;;;9.10;99.90;;;;;;5002970;28;20026;-51
2023/12/24 00:52:48;;;;;;;2.42;0.80;;;9.10;99.90;;;;;;5005241;28;20085;-53
2023/12/24 00:55:14;;;;;;;4.70;1.60;;;9.10;99.90;;;;;;5000644;28;20026;-50
2023/12/24 00:57:40;;;;;;;0.85;0.50;;;9.10;99.90;;;;;;4992597;28;20030;-52
2023/12/24 01:00:06;;;;;;;2.53;0.65;;;9.10;99.90;;;;;;5000661;28;20113;-50
2023/12/24 01:02:32;;;;;;;0.95;0.47;;;9.10;99.90;;;;;;5002392;28;20034;-52
2023/12/24 01:04:58;;;;;;;3.42;0.45;;;9.20;99.90;;;;;;5007076;28;20036;-50
2023/12/24 01:07:24;;;;;;;2.28;0.30;;;9.20;99.90;;;;;;5002810;28;20026;-53
2023/12/24 01:09:49;;;;;;;0.73;0.43;;;9.10;99.90;;;;;;5011941;28;20029;-52
2023/12/24 01:12:16;;;;;;;0.93;0.60;;;9.20;99.90;;;;;;5005155;28;20446;-52
2023/12/24 01:14:41;;;;;;;3.17;0.45;;;9.10;99.90;;;;;;5011735;28;20026;-52
2023/12/24 01:17:07;;;;;;;2.85;0.28;;;9.20;99.90;;;;;;5007866;28;20021;-52
2023/12/24 01:19:33;;;;;;;0.50;0.40;;;9.20;99.90;;;;;;5004407;28;20025;-52
2023/12/24 01:21:58;;;;;;;0.47;0.40;;;9.20;99.90;;;;;;5006856;28;20036;-53
2023/12/24 01:24:24;;;;;;;4.30;0.57;;;9.20;99.90;;;;;;5007795;28;20483;-52
2023/12/24 01:26:50;;;;;;;0.73;0.50;;;9.20;99.90;;;;;;5008045;28;20100;-52
2023/12/24 01:29:16;;;;;;;2.58;0.25;;;9.20;99.90;;;;;;5003305;28;20488;-52
2023/12/24 01:31:41;;;;;;;0.50;0.30;;;9.20;99.90;;;;;;4999885;28;20032;-51
2023/12/24 01:34:07;;;;;;;3.03;0.20;;;9.20;99.90;;;;;;5003297;28;20033;-54
2023/12/24 01:36:32;;;;;;;0.52;0.40;;;9.20;99.90;;;;;;5004911;28;20018;-53
2023/12/24 01:38:58;;;;;;;1.67;0.30;;;9.20;99.90;;;;;;4998664;28;20030;-52
2023/12/24 01:41:24;;;;;;;2.53;0.30;;;9.20;99.90;;;;;;5006784;28;20037;-50
2023/12/24 01:43:49;;;;;;;0.73;0.38;;;9.20;99.90;;;;;;5000799;28;20045;-53
2023/12/24 01:46:20;;;;;;;3.30;0.30;;;9.20;99.90;;;;;;4994601;28;20022;-52
2023/12/24 01:48:48;;;;;;;0.55;0.30;;;9.10;99.90;;;;;;5009737;28;20029;-51
2023/12/24 01:51:15;;;;;;;1.48;0.30;;;9.00;99.90;;;;;;4994923;28;20061;-51
2023/12/24 01:53:41;;;;;;;0.20;0.20;;;9.00;99.90;;;;;;5007573;28;20488;-50
2023/12/24 01:56:07;;;;;;;0.20;0.20;;;8.90;99.90;;;;;;4999349;28;20085;-52
2023/12/24 01:58:33;;;;;;;0.57;0.38;;;8.80;99.90;;;;;;5010224;28;20026;-53
2023/12/24 02:00:58;;;;;;;3.95;0.80;;;8.80;99.90;;;;;;4999145;28;20544;-52
2023/12/24 02:03:24;;;;;;;0.65;0.30;;;8.80;99.90;;;;;;5003077;28;20032;-52
2023/12/24 02:05:50;;;;;;;1.85;0.68;;;8.70;99.90;;;;;;5009551;28;20018;-52
2023/12/24 02:08:21;;;;;;;0.30;0.30;;;8.70;99.90;;;;;;4999493;28;20030;-52
2023/12/24 02:10:50;;;;;;;0.98;0.40;;;8.70;99.90;;;;;;5007462;28;20109;-53
2023/12/24 02:13:16;;;;;;;1.80;0.20;;;8.70;99.90;;;;;;5002443;28;20524;-52
2023/12/24 02:15:45;;;;;;;0.98;0.32;;;8.70;99.90;;;;;;5003874;28;20096;-55
2023/12/24 02:18:11;;;;;;;0.20;0.20;;;8.70;99.90;;;;;;5002876;28;20673;-51
2023/12/24 02:20:37;;;;;;;0.35;0.22;;;8.70;99.90;;;;;;5005473;28;20033;-54
2023/12/24 02:23:03;;;;;;;0.70;0.32;;;8.70;99.90;;;;;;5007719;28;20023;-52
2023/12/24 02:25:30;;;;;;;3.50;0.65;;;8.70;99.90;;;;;;5002147;28;20390;-52
2023/12/24 02:28:04;;;;;;;0.57;0.40;;;8.70;99.90;;;;;;5001649;28;20034;-52
2023/12/24 02:30:35;;;;;;;0.47;0.47;;;8.70;99.90;;;;;;5003904;28;20149;-55
2023/12/24 02:33:03;;;;;;;0.32;0.32;;;8.70;99.90;;;;;;5009211;28;20041;-55
2023/12/24 02:35:32;;;;;;;1.42;0.38;;;8.70;99.90;;;;;;5003226;28;20022;-53
2023/12/24 02:37:57;;;;;;;0.38;0.30;;;8.80;99.90;;;;;;5006830;28;20025;-52
2023/12/24 02:40:23;;;;;;;2.13;0.38;;;8.80;99.90;;;;;;5013429;28;20488;-51
2023/12/24 02:42:49;;;;;;;0.88;0.40;;;8.80;99.90;;;;;;5011017;28;20022;-52
2023/12/24 02:45:14;;;;;;;1.15;0.40;;;8.80;99.90;;;;;;5014569;28;20029;-53
2023/12/24 02:47:40;;;;;;;0.10;0.10;;;8.80;99.90;;;;;;5004539;28;20026;-52
2023/12/24 02:50:06;;;;;;;0.20;0.20;;;8.80;99.90;;;;;;5009534;28;20068;-52
2023/12/24 02:52:31;;;;;;;0.10;0.10;;;8.80;99.90;;;;;;5013416;28;20045;-52
2023/12/24 02:54:57;;;;;;;0.20;0.20;;;8.90;99.90;;;;;;5009663;28;20037;-51
2023/12/24 02:57:23;;;;;;;0.20;0.20;;;9.00;99.90;;;;;;5007214;28;20558;-49
2023/12/24 02:59:48;;;;;;;0.80;0.20;;;9.00;99.90;;;;;;4999199;28;20030;-53
2023/12/24 03:02:14;;;;;;;0.20;0.20;;;9.00;99.90;;;;;;5004033;28;20042;-53
2023/12/24 03:04:40;;;;;;;0.10;0.10;;;9.10;99.90;;;;;;5012280;28;20057;-52
2023/12/24 03:07:05;;;;;;;0.20;0.13;;;9.10;99.90;;;;;;5009506;28;20029;-54
2023/12/24 03:09:31;;;;;;;0.10;0.10;;;9.10;99.90;;;;;;5000930;28;20443;-52
2023/12/24 03:11:57;;;;;;;0.17;0.17;;;9.10;99.90;;;;;;5003985;28;20085;-54
2023/12/24 03:14:22;;;;;;;0.10;0.10;;;9.20;99.90;;;;;;5009361;28;20587;-52
2023/12/24 03:16:48;;;;;;;0.22;0.20;;;9.20;99.90;;;;;;5004806;28;20026;-52
2023/12/24 03:19:14;;;;;;;0.08;0.08;;;9.20;99.90;;;;;;5004421;28;20026;-52
2023/12/24 03:21:41;;;;;;;1.65;0.30;;;9.20;99.90;;;;;;5003756;28;20025;-50
2023/12/24 03:24:07;;;;;;;1.27;0.22;;;9.10;99.90;;;;;;5005329;28;20026;-52
2023/12/24 03:26:32;;;;;;;4.13;0.20;;;9.10;99.90;;;;;;5002473;28;20456;-52
2023/12/24 03:29:00;;;;;;;0.32;0.20;;;9.00;99.90;;;;;;5007951;28;20064;-51
2023/12/24 03:31:26;;;;;;;3.40;0.30;;;8.90;99.90;;;;;;5003873;28;20030;-52
2023/12/24 03:33:52;;;;;;;0.10;0.10;;;8.90;99.90;;;;;;5011858;28;20110;-52
2023/12/24 03:36:18;;;;;;;0.70;0.20;;;8.90;99.90;;;;;;5011441;28;20029;-53
2023/12/24 03:38:44;;;;;;;0.20;0.20;;;8.90;99.90;;;;;;5008143;28;20030;-52
2023/12/24 03:41:10;;;;;;;0.30;0.30;;;8.80;99.90;;;;;;5006174;28;20065;-52
2023/12/24 03:43:35;;;;;;;0.70;0.17;;;8.80;99.90;;;;;;5012906;28;20110;-52
2023/12/24 03:46:01;;;;;;;0.40;0.10;;;8.80;99.90;;;;;;5001744;28;20030;-52
2023/12/24 03:48:27;;;;;;;0.00;0.00;;;8.80;99.90;;;;;;5003730;28;20511;-54
2023/12/24 03:50:52;;;;;;;0.88;0.30;;;8.80;99.90;;;;;;5002455;28;20029;-52
2023/12/24 03:53:18;;;;;;;0.30;0.30;;;8.80;99.90;;;;;;5008699;28;20614;-51
2023/12/24 03:55:43;;;;;;;0.10;0.10;;;8.80;99.90;;;;;;5001174;28;20033;-52
2023/12/24 03:58:09;;;;;;;2.45;0.22;;;8.70;99.90;;;;;;5005729;28;20408;-52
2023/12/24 04:00:35;;;;;;;0.30;0.20;;;8.70;99.90;;;;;;5009747;28;20038;-52
2023/12/24 04:03:00;;;;;;;2.63;0.30;;;8.70;99.90;;;;;;5013539;28;20045;-51
2023/12/24 04:05:26;;;;;;;0.45;0.38;;;8.70;99.90;;;;;;5004725;28;20022;-52
2023/12/24 04:07:51;;;;;;;1.15;0.30;;;8.70;99.90;;;;;;5004222;28;20033;-52
2023/12/24 04:10:17;;;;;;;0.28;0.25;;;8.70;99.90;;;;;;5001083;28;20038;-50
2023/12/24 04:12:43;;;;;;;0.10;0.10;;;8.70;99.90;;;;;;5010113;28;20036;-51
2023/12/24 04:15:09;;;;;;;3.15;0.32;;;8.70;99.90;;;;;;5013122;28;20037;-52
2023/12/24 04:17:35;;;;;;;0.30;0.20;;;8.70;99.90;;;;;;5007845;28;20474;-52
2023/12/24 04:20:05;;;;;;;0.40;0.30;;;8.70;99.90;;;;;;5008596;28;20125;-52
2023/12/24 04:22:31;;;;;;;3.72;0.35;;;8.70;99.90;;;;;;5007869;28;20034;-54
2023/12/24 04:24:59;;;;;;;0.13;0.13;;;8.80;99.90;;;;;;5005890;28;20034;-52
2023/12/24 04:27:25;;;;;;;0.93;0.32;;;8.70;99.90;;;;;;5003025;28;20048;-52
2023/12/24 04:29:51;;;;;;;0.35;0.35;;;8.70;99.90;;;;;;5012798;28;20120;-53
2023/12/24 04:32:20;;;;;;;0.30;0.28;;;8.70;99.90;;;;;;4999142;28;20507;-52
2023/12/24 04:34:45;;;;;;;0.38;0.38;;;8.70;99.90;;;;;;5003967;28;20043;-51
2023/12/24 04:37:11;;;;;;;5.38;0.63;;;8.70;99.90;;;;;;5011436;28;20096;-53
2023/12/24 04:39:37;;;;;;;0.10;0.10;;;8.70;99.90;;;;;;5008986;28;20022;-52
2023/12/24 04:42:03;;;;;;;1.65;0.10;;;8.70;99.90;;;;;;5008869;28;20030;-52
2023/12/24 04:44:28;;;;;;;0.20;0.20;;;8.70;99.90;;;;;;5002626;28;20096;-52
2023/12/24 04:46:54;;;;;;;3.80;0.98;;;8.70;99.90;;;;;;5010900;28;20033;-50
2023/12/24 04:49:20;;;;;;;1.42;0.43;;;8.70;99.90;;;;;;5009162;28;20034;-52
2023/12/24 04:51:45;;;;;;;0.20;0.20;;;8.80;99.90;;;;;;5006407;28;20038;-52
2023/12/24 04:54:11;;;;;;;0.28;0.15;;;8.80;99.90;;;;;;5012242;28;20046;-52
2023/12/24 04:56:37;;;;;;;0.20;0.20;;;8.80;99.90;;;;;;5009218;28;20022;-53
2023/12/24 04:59:02;;;;;;;0.10;0.10;;;8.80;99.90;;;;;;5007539;28;20018;-53
2023/12/24 05:01:29;;;;;;;0.80;0.13;;;8.70;99.90;;;;;;5004087;28;20041;-52
2023/12/24 05:03:54;;;;;;;0.60;0.30;;;8.80;99.90;;;;;;5010756;28;20060;-52
2023/12/24 05:06:21;;;;;;;0.25;0.20;;;8.80;99.90;;;;;;5006893;28;20022;-52
2023/12/24 05:08:46;;;;;;;0.40;0.30;;;8.80;99.90;;;;;;5009463;28;20033;-52
2023/12/24 05:11:12;;;;;;;0.30;0.30;;;8.80;99.90;;;;;;5008568;28;20033;-52
2023/12/24 05:13:38;;;;;;;0.50;0.20;;;8.80;99.90;;;;;;5000555;28;20023;-54
2023/12/24 05:16:05;;;;;;;0.60;0.20;;;8.80;99.90;;;;;;5004853;28;20496;-50
2023/12/24 05:18:31;;;;;;;3.35;0.38;;;8.80;99.90;;;;;;5010414;28;20476;-53
2023/12/24 05:20:57;;;;;;;0.47;0.40;;;8.70;99.90;;;;;;5007903;28;20102;-52
2023/12/24 05:23:25;;;;;;;0.20;0.20;;;8.70;99.90;;;;;;4999986;28;20034;-53
2023/12/24 05:25:51;;;;;;;1.38;0.10;;;8.70;99.90;;;;;;5011602;28;20553;-53
2023/12/24 05:28:17;;;;;;;0.43;0.10;;;8.70;99.90;;;;;;5007850;28;20029;-51
2023/12/24 05:30:43;;;;;;;0.32;0.20;;;8.70;99.90;;;;;;5000976;28;20074;-51
2023/12/24 05:33:09;;;;;;;0.52;0.32;;;8.70;99.90;;;;;;5007315;28;20026;-53
2023/12/24 05:35:35;;;;;;;0.20;0.20;;;8.70;99.90;;;;;;5000071;28;20049;-52
2023/12/24 05:38:00;;;;;;;0.15;0.10;;;8.70;99.90;;;;;;5004740;28;20033;-51
2023/12/24 05:40:26;;;;;;;0.10;0.10;;;8.70;99.90;;;;;;5004309;28;20018;-52
2023/12/24 05:42:51;;;;;;;0.05;0.00;;;8.70;99.90;;;;;;4996503;28;20493;-52
2023/12/24 05:45:17;;;;;;;0.90;0.32;;;8.70;99.90;;;;;;5011158;28;20033;-51
2023/12/24 05:47:43;;;;;;;0.20;0.20;;;8.70;99.90;;;;;;5007499;28;20119;-53
2023/12/24 05:50:09;;;;;;;0.57;0.45;;;8.70;99.90;;;;;;5007764;28;20036;-55
2023/12/24 05:52:35;;;;;;;0.20;0.20;;;8.70;99.90;;;;;;5001912;28;20117;-52
2023/12/24 05:55:01;;;;;;;0.15;0.15;;;8.70;99.90;;;;;;5000540;28;20030;-53
2023/12/24 05:57:27;;;;;;;0.52;0.15;;;8.70;99.90;;;;;;4997702;28;20018;-52
2023/12/24 05:59:53;;;;;;;0.10;0.10;;;8.70;99.90;;;;;;4999430;28;20472;-52
2023/12/24 06:02:19;;;;;;;0.10;0.10;;;8.60;99.90;;;;;;5004524;28;20026;-53
2023/12/24 06:04:45;;;;;;;0.47;0.15;;;8.70;99.90;;;;;;5010935;28;20033;-52
2023/12/24 06:07:10;;;;;;;0.10;0.08;;;8.70;99.90;;;;;;5008993;28;20034;-51
2023/12/24 06:09:36;;;;;;;0.82;0.40;;;8.70;99.90;;;;;;5000009;28;20077;-51
2023/12/24 06:12:02;;;;;;;0.30;0.30;;;8.70;99.90;;;;;;5003955;28;20034;-52
2023/12/24 06:14:28;;;;;;;0.08;0.08;;;8.70;99.90;;;;;;4993207;28;20034;-55
2023/12/24 06:16:53;;;;;;;0.10;0.10;;;8.70;99.90;;;;;;5006106;28;20056;-55
2023/12/24 06:19:19;;;;;;;0.10;0.10;;;8.70;99.90;;;;;;5002990;28;20122;-52
2023/12/24 06:21:44;;;;;;;1.45;0.30;;;8.60;99.90;;;;;;5005207;28;20026;-52
2023/12/24 06:24:10;;;;;;;0.25;0.20;;;8.70;99.90;;;;;;5008275;28;20474;-55
2023/12/24 06:26:36;;;;;;;0.30;0.30;;;8.70;99.90;;;;;;5010741;28;20105;-52
2023/12/24 06:29:01;;;;;;;0.08;0.08;;;8.70;99.90;;;;;;5010916;28;20080;-52
2023/12/24 06:31:27;;;;;;;0.38;0.20;;;8.70;99.90;;;;;;5000246;28;20476;-50
2023/12/24 06:33:53;;;;;;;0.10;0.10;;;8.70;99.90;;;;;;5008777;28;20076;-50
2023/12/24 06:38:46;;;;;;;0.30;0.30;;;8.70;99.90;;;;;;5005778;28;20042;-51
2023/12/24 06:41:12;;;;;;;0.50;0.22;;;8.70;99.90;;;;;;5003142;28;20029;-50
2023/12/24 06:43:38;;;;;;;0.10;0.10;;;8.70;99.90;;;;;;5010431;28;20029;-51
2023/12/24 06:46:11;;;;;;;1.48;0.75;;;8.70;99.90;;;;;;5007052;28;20471;-48
2023/12/24 06:48:37;;;;;;;0.30;0.30;;;8.80;99.90;;;;;;4990808;28;20030;-51
2023/12/24 06:51:03;;;;;;;0.10;0.10;;;8.80;99.90;;;;;;4990151;28;20038;-52
2023/12/24 06:53:29;;;;;;;0.00;0.00;;;8.80;99.90;;;;;;4986208;28;20042;-49
2023/12/24 06:55:54;;;;;;;0.10;0.10;;;8.80;99.90;;;;;;4983749;28;20468;-53
2023/12/24 06:58:20;;;;;;;0.52;0.20;;;8.80;99.90;;;;;;4987272;28;20019;-54
2023/12/24 07:00:45;;;;;;;0.68;0.30;;;8.80;99.90;;;;;;4990752;28;20031;-51
2023/12/24 07:03:12;;;;;;;0.10;0.10;;;8.80;99.90;;;;;;4990646;28;20551;-48
2023/12/24 07:05:38;;;;;;;2.33;0.22;;;8.80;99.90;;;;;;4989926;28;20038;-49
2023/12/24 07:08:04;;;;;;;0.10;0.10;;;8.80;99.90;;;;;;4989030;28;20076;-51
2023/12/24 07:10:29;;;;;;;0.10;0.10;;;8.80;99.90;;;;;;4984207;28;20061;-50
2023/12/24 07:12:56;;;;;;;0.57;0.43;;;8.80;99.90;;;;;;4990196;28;20026;-50
2023/12/24 07:15:21;;;;;;;4.30;1.23;;;8.80;99.90;;;;;;4990553;28;20136;-52
2023/12/24 07:17:47;;;;;;;5.45;2.90;;;8.80;99.90;;;;;;4989653;28;20018;-54
2023/12/24 07:20:14;;;;;;;15.35;8.48;;;8.80;99.90;;;;;;4986213;28;20403;-49
2023/12/24 07:22:40;;;;;;;19.55;10.77;;;8.80;99.90;;;;;;4990147;28;20034;-50
2023/12/24 07:25:06;;;;;;;19.17;9.70;;;8.80;99.90;;;;;;4990422;28;20428;-53
2023/12/24 07:27:32;;;;;;;28.77;14.50;;;8.80;99.90;;;;;;4994078;28;20042;-48
2023/12/24 07:29:57;;;;;;;14.48;6.82;;;8.80;99.90;;;;;;4994056;28;20539;-53
2023/12/24 07:32:23;;;;;;;22.33;11.80;;;8.80;99.90;;;;;;4992986;28;20033;-52
2023/12/24 07:34:49;;;;;;;19.08;10.65;;;8.90;99.90;;;;;;4985964;28;20046;-53
2023/12/24 07:37:15;;;;;;;47.10;20.77;;;8.90;99.90;;;;;;4990223;28;20042;-50
2023/12/24 07:39:42;;;;;;;18.15;8.93;;;8.80;99.90;;;;;;4994086;28;20284;-52
2023/12/24 07:42:07;;;;;;;42.53;19.58;;;8.90;99.90;;;;;;4989452;28;20407;-50
2023/12/24 07:44:33;;;;;;;53.70;24.55;;;8.90;99.90;;;;;;4993886;28;20034;-51
2023/12/24 07:46:59;;;;;;;21.25;11.20;;;8.90;99.90;;;;;;4992792;28;20113;-53
2023/12/24 07:49:26;;;;;;;17.35;11.55;;;8.90;99.90;;;;;;4992961;28;20045;-53
2023/12/24 07:51:54;;;;;;;3.22;2.58;;;8.90;99.90;;;;;;4989986;28;20113;-51
2023/12/24 07:54:19;;;;;;;2.17;1.90;;;9.00;99.90;;;;;;4993759;28;20031;-52
2023/12/24 07:56:45;;;;;;;6.38;3.83;;;9.00;99.90;;;;;;4993713;28;20114;-52
2023/12/24 07:59:11;;;;;;;12.90;7.43;;;9.00;99.90;;;;;;4993765;28;20026;-52
2023/12/24 08:01:37;;;;;;;4.28;2.30;;;9.00;99.90;;;;;;4992290;28;20116;-52
2023/12/24 08:04:04;;;;;;;2.60;1.73;;;9.10;99.90;;;;;;4991773;28;20034;-54
2023/12/24 08:06:29;;;;;;;5.30;3.47;;;9.10;99.90;;;;;;4988844;28;20031;-51
2023/12/24 08:08:58;;;;;;;6.25;3.78;;;9.10;99.90;;;;;;4991890;28;20541;-52
2023/12/24 08:11:24;;;;;;;3.28;2.38;;;9.20;99.90;;;;;;4993212;28;20031;-52
2023/12/24 08:13:50;;;;;;;3.13;2.17;;;9.20;99.90;;;;;;4992996;28;20057;-53
2023/12/24 08:16:16;;;;;;;1.00;0.90;;;9.20;99.90;;;;;;4990308;28;20030;-55
2023/12/24 08:18:42;;;;;;;2.90;2.33;;;9.20;99.90;;;;;;4992877;28;20025;-57
2023/12/24 08:21:10;;;;;;;1.40;1.30;;;9.30;99.90;;;;;;4989745;28;20041;-50
2023/12/24 08:23:36;;;;;;;0.70;0.70;;;9.30;99.90;;;;;;4993393;28;20096;-52
2023/12/24 08:26:01;;;;;;;4.93;2.30;;;9.30;99.90;;;;;;4993173;28;20045;-52
2023/12/24 08:28:27;;;;;;;10.57;4.25;;;9.40;99.90;;;;;;4993242;28;20023;-52
2023/12/24 08:30:53;;;;;;;11.40;4.55;;;9.40;99.90;;;;;;4989325;28;20031;-53
2023/12/24 08:33:18;;;;;;;13.60;3.47;;;9.50;99.90;;;;;;4990204;28;20065;-53
2023/12/24 08:35:44;;;;;;;26.75;9.63;;;9.50;99.90;;;;;;4988184;28;20073;-49
2023/12/24 08:38:10;;;;;;;17.13;6.18;;;9.50;99.90;;;;;;4993019;28;20113;-50
2023/12/24 08:40:35;;;;;;;18.23;6.90;;;9.60;99.90;;;;;;4993137;28;20035;-50
2023/12/24 08:43:01;;;;;;;15.05;6.53;;;9.50;99.90;;;;;;4993000;28;20030;-52
2023/12/24 08:45:27;;;;;;;12.43;5.10;;;9.50;99.90;;;;;;4990923;28;20471;-49
2023/12/24 08:47:53;;;;;;;8.85;5.07;;;9.60;99.90;;;;;;4988214;28;20480;-53
2023/12/24 08:50:20;;;;;;;30.25;12.20;;;9.60;99.90;;;;;;4986884;28;20025;-52
2023/12/24 08:52:46;;;;;;;4.25;1.17;;;9.60;99.90;;;;;;4989855;28;20064;-52
2023/12/24 08:55:12;;;;;;;27.77;12.07;;;9.60;99.90;;;;;;4992805;28;20110;-53
2023/12/24 08:57:37;;;;;;;7.22;3.25;;;9.70;99.90;;;;;;4992421;28;20095;-55
2023/12/24 09:00:05;;;;;;;10.95;3.70;;;9.70;99.90;;;;;;4991209;28;20042;-55
2023/12/24 09:02:31;;;;;;;15.90;6.00;;;9.70;99.90;;;;;;4990011;28;20026;-50
2023/12/24 09:04:58;;;;;;;3.08;1.30;;;9.70;99.90;;;;;;4991181;28;20114;-53
2023/12/24 09:07:24;;;;;;;27.40;9.93;;;9.80;99.90;;;;;;4992420;28;20085;-51
2023/12/24 09:09:51;;;;;;;20.10;7.20;;;9.80;99.90;;;;;;4992521;28;20496;-50
2023/12/24 09:12:18;;;;;;;1.05;0.60;;;9.90;99.90;;;;;;4988312;28;20038;-51
2023/12/24 09:14:43;;;;;;;1.30;0.90;;;9.90;99.90;;;;;;4992253;28;20038;-50
2023/12/24 09:17:09;;;;;;;12.73;4.75;;;10.00;99.90;;;;;;4992321;28;20142;-51
2023/12/24 09:19:35;;;;;;;19.05;8.63;;;10.00;99.90;;;;;;4992133;28;20034;-52
2023/12/24 09:22:00;;;;;;;10.98;5.63;;;10.00;99.90;;;;;;4992193;28;20062;-54
2023/12/24 09:24:26;;;;;;;5.43;3.38;;;10.00;99.90;;;;;;4992154;28;20041;-48
2023/12/24 09:26:52;;;;;;;3.50;2.20;;;9.90;99.90;;;;;;4985486;28;20109;-53
2023/12/24 09:29:21;;;;;;;2.67;2.05;;;9.90;99.90;;;;;;4991879;28;20034;-52
2023/12/24 09:31:47;;;;;;;3.05;2.22;;;9.90;99.90;;;;;;4991824;28;20025;-49
2023/12/24 09:34:13;;;;;;;1.77;1.45;;;9.90;99.90;;;;;;4992084;28;20484;-53
2023/12/24 09:36:39;;;;;;;7.30;4.03;;;9.80;99.90;;;;;;4991782;28;20026;-50
2023/12/24 09:39:05;;;;;;;3.33;2.30;;;9.80;99.90;;;;;;4992214;28;20372;-51
2023/12/24 09:41:30;;;;;;;1.05;0.60;;;9.80;99.90;;;;;;4989646;28;20121;-51
2023/12/24 09:43:56;;;;;;;12.52;7.18;;;9.80;99.90;;;;;;4991291;28;20396;-52
2023/12/24 09:46:22;;;;;;;4.43;3.00;;;9.90;99.90;;;;;;4991750;28;20469;-54
2023/12/24 09:48:47;;;;;;;1.50;0.80;;;9.90;99.90;;;;;;4991831;28;20037;-50
2023/12/24 09:51:13;;;;;;;0.80;0.80;;;9.90;99.90;;;;;;4991690;28;20113;-54
2023/12/24 09:53:46;;;;;;;1.20;0.98;;;9.90;99.90;;;;;;4983801;28;20507;-53
2023/12/24 09:56:12;;;;;;;1.35;0.77;;;9.90;99.90;;;;;;4984479;28;20026;-50
2023/12/24 09:58:37;;;;;;;1.85;1.38;;;9.90;99.90;;;;;;4985986;28;20438;-53
2023/12/24 10:01:03;;;;;;;1.13;0.90;;;9.90;99.90;;;;;;4988145;28;20027;-54
2023/12/24 10:03:29;;;;;;;2.65;1.67;;;9.90;99.90;;;;;;4991428;28;20025;-51
2023/12/24 10:05:58;;;;;;;2.33;1.40;;;9.90;99.90;;;;;;4990696;28;20187;-50
2023/12/24 10:08:24;;;;;;;2.85;1.75;;;9.90;99.90;;;;;;4986558;28;20026;-49
2023/12/24 10:10:49;;;;;;;1.85;0.82;;;9.90;99.90;;;;;;4987889;28;20030;-53
2023/12/24 10:13:19;;;;;;;0.80;0.75;;;9.90;99.90;;;;;;4985201;28;20400;-52
2023/12/24 10:15:45;;;;;;;0.40;0.40;;;10.00;99.90;;;;;;4982738;28;20026;-54
2023/12/24 10:18:18;;;;;;;0.85;0.57;;;10.00;99.90;;;;;;4983828;28;20037;-49
2023/12/24 10:20:43;;;;;;;2.47;1.70;;;10.10;99.90;;;;;;4987937;28;20391;-54
2023/12/24 10:23:09;;;;;;;1.10;1.00;;;10.10;99.90;;;;;;4991465;28;20026;-50
2023/12/24 10:25:35;;;;;;;2.10;1.20;;;10.10;99.90;;;;;;4984985;28;20149;-51
2023/12/24 10:28:07;;;;;;;1.45;0.80;;;10.10;99.90;;;;;;4990984;28;20384;-49
2023/12/24 10:30:33;;;;;;;2.28;1.20;;;10.10;99.90;;;;;;4987809;28;20061;-49
2023/12/24 10:33:09;;;;;;;0.70;0.70;;;10.10;99.90;;;;;;4990900;28;20034;-53
2023/12/24 10:35:35;;;;;;;1.05;0.60;;;10.20;99.90;;;;;;4991156;28;20026;-52
2023/12/24 10:38:15;;;;;;;2.13;1.30;;;10.20;99.90;;;;;;4989773;28;20394;-52
2023/12/24 10:40:42;;;;;;;1.13;0.88;;;10.30;99.90;;;;;;4980683;28;20026;-49
2023/12/24 10:43:07;;;;;;;2.90;1.40;;;10.30;99.90;;;;;;4984548;28;20022;-53
2023/12/24 10:45:33;;;;;;;2.47;0.40;;;10.30;99.90;;;;;;4991008;28;20034;-54
2023/12/24 10:47:59;;;;;;;1.90;0.93;;;10.30;99.90;;;;;;4990805;28;20076;-53
2023/12/24 10:50:24;;;;;;;4.00;2.15;;;10.40;99.90;;;;;;4991268;28;20025;-50
2023/12/24 10:52:50;;;;;;;0.50;0.50;;;10.40;99.90;;;;;;4990852;28;20025;-52
2023/12/24 10:55:17;;;;;;;1.40;0.88;;;10.40;99.90;;;;;;4986520;28;20484;-53
2023/12/24 10:57:48;;;;;;;1.70;1.00;;;10.50;99.90;;;;;;4986858;28;20388;-52
2023/12/24 11:00:14;;;;;;;1.63;0.82;;;10.50;99.90;;;;;;4991327;28;20089;-52
2023/12/24 11:02:49;;;;;;;0.43;0.43;;;10.50;99.90;;;;;;4994611;28;20094;-53
2023/12/24 11:05:39;;;;;;;2.75;0.90;;;10.50;99.90;;;;;;4991453;28;20072;-49
2023/12/24 11:08:05;;;;;;;1.25;0.73;;;10.60;99.90;;;;;;4994686;28;20030;-53
2023/12/24 11:10:40;;;;;;;1.17;0.82;;;10.60;99.90;;;;;;4991367;28;20037;-50
2023/12/24 11:13:27;;;;;;;0.38;0.38;;;10.60;99.90;;;;;;4994151;28;20026;-51
2023/12/24 11:15:53;;;;;;;0.40;0.40;;;10.60;99.90;;;;;;4992680;28;20085;-53
2023/12/24 11:18:46;;;;;;;0.52;0.40;;;10.60;99.90;;;;;;4994468;28;20432;-55
2023/12/24 11:21:17;;;;;;;0.45;0.40;;;10.60;99.90;;;;;;4990696;28;20126;-51
2023/12/24 11:24:11;;;;;;;0.38;0.30;;;10.70;99.90;;;;;;4992417;28;20030;-53
2023/12/24 11:26:36;;;;;;;0.30;0.30;;;10.70;99.90;;;;;;4990449;28;20030;-53
2023/12/24 11:29:40;;;;;;;0.60;0.60;;;10.70;99.90;;;;;;4994320;28;20044;-50
2023/12/24 11:32:24;;;;;;;1.00;0.32;;;10.60;99.90;;;;;;4993803;28;20117;-52
2023/12/24 11:34:50;;;;;;;0.35;0.35;;;10.70;99.90;;;;;;4993308;28;20388;-50
2023/12/24 11:37:34;;;;;;;0.60;0.60;;;10.70;99.90;;;;;;4993996;28;20030;-52
2023/12/24 11:40:12;;;;;;;1.23;0.65;;;10.70;99.90;;;;;;4989469;28;20068;-52
2023/12/24 11:42:50;;;;;;;5.43;1.23;;;10.70;99.90;;;;;;4993754;28;20092;-52
2023/12/24 11:45:26;;;;;;;0.50;0.50;;;10.70;99.90;;;;;;4990987;28;20030;-55
2023/12/24 11:47:52;;;;;;;1.27;0.43;;;10.70;99.90;;;;;;4987767;28;20042;-52
2023/12/24 11:50:18;;;;;;;0.60;0.52;;;10.70;99.90;;;;;;4992053;28;20022;-51
2023/12/24 11:52:48;;;;;;;0.60;0.60;;;10.80;99.90;;;;;;4993543;28;20018;-53
2023/12/24 11:55:20;;;;;;;0.75;0.30;;;10.80;99.90;;;;;;4994120;28;20023;-51
2023/12/24 11:57:48;;;;;;;0.35;0.35;;;10.80;99.90;;;;;;4993737;28;20026;-52
2023/12/24 12:00:24;;;;;;;0.35;0.35;;;10.80;99.90;;;;;;4993801;28;20022;-49
2023/12/24 12:02:58;;;;;;;0.60;0.60;;;10.80;99.90;;;;;;4993537;28;20046;-55
2023/12/24 12:05:25;;;;;;;0.70;0.40;;;10.80;99.90;;;;;;4992313;28;20026;-50
2023/12/24 12:07:52;;;;;;;0.75;0.55;;;10.90;99.90;;;;;;4985564;28;20030;-50
2023/12/24 12:10:18;;;;;;;0.85;0.50;;;10.90;99.90;;;;;;4993673;28;20033;-50
2023/12/24 12:12:44;;;;;;;1.63;0.85;;;10.90;99.90;;;;;;4993287;28;20035;-51
2023/12/24 12:15:11;;;;;;;0.85;0.68;;;10.90;99.90;;;;;;4993632;28;20514;-52
2023/12/24 12:17:37;;;;;;;1.17;0.68;;;10.90;99.90;;;;;;4993300;28;20723;-48
2023/12/24 12:20:06;;;;;;;0.75;0.60;;;10.90;99.90;;;;;;4993436;28;20031;-49
2023/12/24 12:22:31;;;;;;;0.28;0.28;;;10.90;99.90;;;;;;4991464;28;20045;-53
2023/12/24 12:24:57;;;;;;;0.38;0.30;;;11.00;99.90;;;;;;4992087;28;20418;-53
2023/12/24 12:27:24;;;;;;;1.80;1.33;;;11.00;99.90;;;;;;4993019;28;20022;-54
2023/12/24 12:29:50;;;;;;;0.85;0.45;;;11.00;99.90;;;;;;4993213;28;20030;-53
2023/12/24 12:32:15;;;;;;;8.85;3.40;;;11.00;99.90;;;;;;4992988;28;20026;-54
2023/12/24 12:34:41;;;;;;;23.88;6.63;;;10.90;99.90;;;;;;4993205;28;20034;-53
2023/12/24 12:37:06;;;;;;;19.58;6.53;;;11.00;99.90;;;;;;4986374;28;20403;-52
2023/12/24 12:39:32;;;;;;;12.93;6.82;;;11.00;99.90;;;;;;4989489;28;20101;-52
2023/12/24 12:42:00;;;;;;;7.53;2.85;;;11.00;99.90;;;;;;4992843;28;20018;-47
2023/12/24 12:44:25;;;;;;;11.43;5.38;;;10.90;99.90;;;;;;4991431;28;20026;-50
2023/12/24 12:46:51;;;;;;;21.80;8.93;;;11.00;99.90;;;;;;4992572;28;20073;-51
2023/12/24 12:49:16;;;;;;;17.25;7.47;;;11.00;99.90;;;;;;4992091;28;20022;-50
2023/12/24 12:51:42;;;;;;;54.17;21.90;;;10.90;99.90;;;;;;4992545;28;20042;-49
2023/12/24 12:54:10;;;;;;;22.85;9.20;;;10.90;99.90;;;;;;4992777;28;20092;-51